View the latest observations near Atlantic Tropical Depression Five, Central Pacific Tropical Storm Lowell and East Pacific Hurricane Karina.
Station 45203 - Search and Rescue Data
Average surface winds - six hour block.
| Date (UTC) | Average Wind Dir (True) |
Average Wind Spd (Knots) |
Wind Obs |
Average Seas (Feet) |
Wave Obs |
Air Temp. (Degrees F.) |
Air Temp. Obs |
Water Temp. (Degrees F.) |
Water Temp. Obs |
|---|---|---|---|---|---|---|---|---|---|
| 2026-08-31 1800Z | 239 | 8 | 7 | 0 | 7 | - | 0 | 75 | 7 |
| 2026-08-31 1200Z | 218 | 6 | 33 | 0 | 34 | - | 0 | 75 | 34 |
| 2026-08-31 0600Z | 206 | 7 | 36 | 0 | 36 | - | 0 | 75 | 36 |
| 2026-08-31 0000Z | 176 | 4 | 35 | 0 | 35 | - | 0 | 75 | 35 |
| 2026-08-30 1800Z | 198 | 4 | 36 | 0 | 36 | - | 0 | 75 | 36 |
| 2026-08-30 1200Z | 222 | 6 | 36 | 0 | 36 | - | 0 | 75 | 36 |
| 2026-08-30 0600Z | 206 | 6 | 36 | 0 | 36 | - | 0 | 76 | 36 |
| 2026-08-30 0000Z | 55 | 3 | 35 | 0 | 35 | - | 0 | 76 | 35 |
| 2026-08-29 1800Z | 214 | 4 | 36 | 0 | 36 | - | 0 | 76 | 36 |
| 2026-08-29 1200Z | 197 | 9 | 36 | 0 | 36 | - | 0 | 75 | 36 |
| 2026-08-29 0600Z | 183 | 5 | 36 | 1 | 36 | - | 0 | 75 | 36 |
| 2026-08-29 0000Z | 36 | 6 | 36 | 1 | 36 | - | 0 | 76 | 36 |
| 2026-08-28 1800Z | 8 | 10 | 36 | 2 | 36 | - | 0 | 76 | 36 |
| 2026-08-28 1200Z | 354 | 12 | 36 | 3 | 36 | - | 0 | 76 | 36 |
| 2026-08-28 0600Z | 326 | 4 | 36 | 1 | 36 | - | 0 | 76 | 36 |
| 2026-08-28 0000Z | 281 | 3 | 36 | 1 | 36 | - | 0 | 76 | 36 |
| 2026-08-27 1800Z | 305 | 8 | 36 | 1 | 36 | - | 0 | 76 | 36 |
| 2026-08-27 1200Z | 238 | 6 | 36 | 0 | 36 | - | 0 | 75 | 36 |
| 2026-08-27 0600Z | 237 | 6 | 36 | 0 | 36 | - | 0 | 75 | 36 |
| 2026-08-27 0000Z | 199 | 7 | 34 | 0 | 34 | - | 0 | 76 | 34 |
| 2026-08-26 1800Z | 220 | 8 | 35 | 0 | 35 | - | 0 | 75 | 35 |
The six-hour averages are calculated as follows:
- The 0000Z average uses data from 2100Z to 0259Z.
- The 0600Z average uses data from 0300Z to 0859Z.
- The 1200Z average uses data from 0900Z to 1459Z.
- The 1800Z average uses data from 1500Z to 2059Z.
Display all available SAR data (up to 45 days)



